HSE7AH EDDP-EBBR
Flight info
| Callsign | HSE7AH |
|---|---|
| Flight time | 0h 55m |
| Altitude | 38000 |
| Route | ORTAG5E/08R ORTAG Q230 KUMER DCT WRB DCT ABAMI Z717 NEREL T855 BATTY |
| Aircraft | B738/M-SDE2E3FGHIRWXY/LB1 |
Departure
| Time | 2026-05-07 19:12 |
|---|---|
| Airport | Leipzig/Halle Airport (EDDP) |
Arrival
| Time | 2026-05-07 20:07 |
|---|---|
| Airport | Brussels Airport (EBBR) |
| Time | Latitude | Longitude | Altitude | Speed | Heading |
|---|---|---|---|---|---|
| 2026-05-07 18:32 | 51.40802 | 12.23558 | 464 ft | 0 kts | 265° |
| 2026-05-07 18:56 | 51.40802 | 12.23560 | 464 ft | 1 kts | 265° |
| 2026-05-07 18:57 | 51.40804 | 12.23599 | 464 ft | 4 kts | 265° |
| 2026-05-07 18:57 | 51.40806 | 12.23637 | 462 ft | 4 kts | 271° |
| 2026-05-07 18:57 | 51.40798 | 12.23671 | 460 ft | 4 kts | 330° |
| 2026-05-07 18:57 | 51.40776 | 12.23680 | 459 ft | 2 kts | 356° |
| 2026-05-07 18:58 | 51.40771 | 12.23680 | 459 ft | 1 kts | 356° |
| 2026-05-07 19:03 | 51.40799 | 12.23677 | 464 ft | 7 kts | 356° |
| 2026-05-07 19:03 | 51.40863 | 12.23671 | 465 ft | 12 kts | 355° |
| 2026-05-07 19:03 | 51.40945 | 12.23659 | 465 ft | 12 kts | 355° |
| 2026-05-07 19:04 | 51.41027 | 12.23641 | 470 ft | 11 kts | 332° |
| 2026-05-07 19:04 | 51.41042 | 12.23526 | 469 ft | 11 kts | 267° |
| 2026-05-07 19:04 | 51.41038 | 12.23401 | 469 ft | 11 kts | 267° |
| 2026-05-07 19:04 | 51.41061 | 12.23295 | 469 ft | 11 kts | 335° |
| 2026-05-07 19:05 | 51.41116 | 12.23227 | 467 ft | 11 kts | 283° |
| 2026-05-07 19:05 | 51.41112 | 12.23100 | 465 ft | 13 kts | 265° |
| 2026-05-07 19:05 | 51.41104 | 12.22928 | 462 ft | 19 kts | 266° |
| 2026-05-07 19:05 | 51.41093 | 12.22685 | 458 ft | 24 kts | 265° |
| 2026-05-07 19:06 | 51.41080 | 12.22406 | 455 ft | 26 kts | 266° |
| 2026-05-07 19:06 | 51.41055 | 12.21879 | 456 ft | 21 kts | 265° |
| 2026-05-07 19:06 | 51.41044 | 12.21645 | 455 ft | 21 kts | 265° |
| 2026-05-07 19:07 | 51.41033 | 12.21419 | 451 ft | 20 kts | 266° |
| 2026-05-07 19:07 | 51.41023 | 12.21198 | 448 ft | 19 kts | 266° |
| 2026-05-07 19:07 | 51.41012 | 12.20962 | 440 ft | 23 kts | 265° |
| 2026-05-07 19:07 | 51.41002 | 12.20743 | 425 ft | 18 kts | 265° |
| 2026-05-07 19:08 | 51.40995 | 12.20556 | 435 ft | 15 kts | 276° |
| 2026-05-07 19:08 | 51.41041 | 12.20486 | 435 ft | 15 kts | 354° |
| 2026-05-07 19:08 | 51.41131 | 12.20519 | 438 ft | 0 kts | 19° |
| 2026-05-07 19:08 | 51.41162 | 12.20563 | 435 ft | 14 kts | 63° |
| 2026-05-07 19:09 | 51.41173 | 12.20716 | 427 ft | 0 kts | 85° |
| 2026-05-07 19:11 | 51.41181 | 12.20896 | 442 ft | 49 kts | 85° |
| 2026-05-07 19:11 | 51.41227 | 12.21867 | 454 ft | 122 kts | 86° |
| 2026-05-07 19:11 | 51.41316 | 12.23489 | 828 ft | 156 kts | 83° |
| 2026-05-07 19:12 | 51.41399 | 12.25200 | 2203 ft | 153 kts | 85° |
| 2026-05-07 19:12 | 51.41463 | 12.26898 | 3508 ft | 146 kts | 85° |
| 2026-05-07 19:12 | 51.41534 | 12.28525 | 4463 ft | 156 kts | 82° |
| 2026-05-07 19:12 | 51.41606 | 12.30405 | 4975 ft | 180 kts | 86° |
| 2026-05-07 19:13 | 51.41697 | 12.32544 | 5395 ft | 203 kts | 84° |
| 2026-05-07 19:13 | 51.41812 | 12.34921 | 5690 ft | 224 kts | 84° |
| 2026-05-07 19:13 | 51.42137 | 12.37446 | 6015 ft | 240 kts | 67° |
| 2026-05-07 19:13 | 51.43012 | 12.39715 | 6607 ft | 246 kts | 48° |
| 2026-05-07 19:14 | 51.44333 | 12.41462 | 6861 ft | 246 kts | 31° |
| 2026-05-07 19:14 | 51.45941 | 12.42352 | 7079 ft | 249 kts | 5° |
| 2026-05-07 19:14 | 51.47686 | 12.42077 | 7120 ft | 257 kts | 348° |
| 2026-05-07 19:14 | 51.49472 | 12.41326 | 7415 ft | 274 kts | 345° |
| 2026-05-07 19:15 | 51.50718 | 12.40767 | 8002 ft | 275 kts | 345° |
| 2026-05-07 19:15 | 51.53175 | 12.39683 | 9156 ft | 279 kts | 346° |
| 2026-05-07 19:15 | 51.55051 | 12.38797 | 10011 ft | 284 kts | 338° |
| 2026-05-07 19:15 | 51.56677 | 12.36915 | 10574 ft | 301 kts | 311° |
| 2026-05-07 19:16 | 51.57714 | 12.33828 | 10785 ft | 329 kts | 291° |
| 2026-05-07 19:16 | 51.58470 | 12.30199 | 10966 ft | 353 kts | 289° |
| 2026-05-07 19:16 | 51.59258 | 12.26334 | 11161 ft | 374 kts | 289° |
| 2026-05-07 19:16 | 51.60118 | 12.22314 | 11618 ft | 384 kts | 293° |
| 2026-05-07 19:17 | 51.61552 | 12.18704 | 12303 ft | 385 kts | 314° |
| 2026-05-07 19:17 | 51.63652 | 12.16046 | 13103 ft | 385 kts | 329° |
| 2026-05-07 19:17 | 51.65949 | 12.13787 | 13878 ft | 389 kts | 329° |
| 2026-05-07 19:17 | 51.68195 | 12.11298 | 14494 ft | 396 kts | 317° |
| 2026-05-07 19:18 | 51.69813 | 12.07682 | 15189 ft | 403 kts | 296° |
| 2026-05-07 19:18 | 51.70599 | 12.03350 | 15948 ft | 407 kts | 277° |
| 2026-05-07 19:18 | 51.70562 | 11.98822 | 16653 ft | 412 kts | 266° |
| 2026-05-07 19:18 | 51.70318 | 11.94201 | 17334 ft | 416 kts | 265° |
| 2026-05-07 19:19 | 51.70048 | 11.89539 | 18001 ft | 420 kts | 265° |
| 2026-05-07 19:19 | 51.69780 | 11.84832 | 18631 ft | 423 kts | 265° |
| 2026-05-07 19:19 | 51.69520 | 11.80089 | 19230 ft | 426 kts | 265° |
| 2026-05-07 19:19 | 51.69268 | 11.75321 | 19848 ft | 427 kts | 266° |
| 2026-05-07 19:20 | 51.69104 | 11.72154 | 20254 ft | 429 kts | 266° |
| 2026-05-07 19:20 | 51.68858 | 11.67350 | 20822 ft | 431 kts | 266° |
| 2026-05-07 19:20 | 51.68526 | 11.60875 | 21557 ft | 435 kts | 266° |
| 2026-05-07 19:20 | 51.68274 | 11.56001 | 22104 ft | 438 kts | 266° |
| 2026-05-07 19:21 | 51.68018 | 11.51095 | 22621 ft | 440 kts | 265° |
| 2026-05-07 19:21 | 51.67759 | 11.46166 | 23129 ft | 443 kts | 265° |
| 2026-05-07 19:21 | 51.67495 | 11.41198 | 23616 ft | 446 kts | 265° |
| 2026-05-07 19:21 | 51.67231 | 11.36263 | 24028 ft | 448 kts | 265° |
| 2026-05-07 19:22 | 51.66669 | 11.31325 | 24412 ft | 452 kts | 251° |
| 2026-05-07 19:22 | 51.65209 | 11.26835 | 24826 ft | 455 kts | 235° |
| 2026-05-07 19:22 | 51.63054 | 11.23103 | 25227 ft | 459 kts | 219° |
| 2026-05-07 19:22 | 51.60404 | 11.20222 | 25624 ft | 461 kts | 213° |
| 2026-05-07 19:23 | 51.57668 | 11.17466 | 25958 ft | 464 kts | 213° |
| 2026-05-07 19:23 | 51.54947 | 11.14648 | 26283 ft | 467 kts | 215° |
| 2026-05-07 19:23 | 51.52511 | 11.11224 | 26570 ft | 467 kts | 232° |
| 2026-05-07 19:23 | 51.50840 | 11.06774 | 26934 ft | 467 kts | 248° |
| 2026-05-07 19:24 | 51.49972 | 11.01766 | 27318 ft | 466 kts | 262° |
| 2026-05-07 19:24 | 51.49897 | 10.96601 | 27746 ft | 464 kts | 277° |
| 2026-05-07 19:24 | 51.50443 | 10.91515 | 28234 ft | 462 kts | 281° |
| 2026-05-07 19:24 | 51.51085 | 10.86473 | 28683 ft | 461 kts | 282° |
| 2026-05-07 19:25 | 51.51729 | 10.81430 | 29106 ft | 460 kts | 281° |
| 2026-05-07 19:25 | 51.52341 | 10.76381 | 29542 ft | 459 kts | 281° |
| 2026-05-07 19:25 | 51.52922 | 10.71348 | 30011 ft | 458 kts | 280° |
| 2026-05-07 19:25 | 51.53488 | 10.66319 | 30399 ft | 457 kts | 279° |
| 2026-05-07 19:26 | 51.53848 | 10.61305 | 30699 ft | 458 kts | 271° |
| 2026-05-07 19:26 | 51.53817 | 10.56193 | 31017 ft | 458 kts | 269° |
| 2026-05-07 19:26 | 51.53712 | 10.51062 | 31347 ft | 458 kts | 268° |
| 2026-05-07 19:26 | 51.53594 | 10.45954 | 31682 ft | 458 kts | 268° |
| 2026-05-07 19:27 | 51.53479 | 10.40842 | 32021 ft | 458 kts | 268° |
| 2026-05-07 19:27 | 51.53372 | 10.35729 | 32351 ft | 458 kts | 268° |
| 2026-05-07 19:27 | 51.53274 | 10.30626 | 32696 ft | 457 kts | 268° |
| 2026-05-07 19:27 | 51.53180 | 10.25515 | 33034 ft | 457 kts | 268° |
| 2026-05-07 19:28 | 51.53088 | 10.20421 | 33364 ft | 457 kts | 268° |
| 2026-05-07 19:28 | 51.52995 | 10.15326 | 33714 ft | 456 kts | 268° |
| 2026-05-07 19:28 | 51.52901 | 10.10235 | 34035 ft | 456 kts | 268° |
| 2026-05-07 19:28 | 51.52804 | 10.05139 | 34325 ft | 456 kts | 268° |
| 2026-05-07 19:29 | 51.52738 | 10.01767 | 34510 ft | 455 kts | 268° |
| 2026-05-07 19:29 | 51.52637 | 9.96687 | 34782 ft | 455 kts | 268° |
| 2026-05-07 19:29 | 51.52500 | 9.89966 | 35150 ft | 454 kts | 268° |
| 2026-05-07 19:29 | 51.52393 | 9.84894 | 35426 ft | 454 kts | 268° |
| 2026-05-07 19:30 | 51.52285 | 9.79836 | 35687 ft | 453 kts | 268° |
| 2026-05-07 19:30 | 51.52211 | 9.76422 | 35865 ft | 453 kts | 268° |
| 2026-05-07 19:30 | 51.52099 | 9.71359 | 36131 ft | 453 kts | 268° |
| 2026-05-07 19:30 | 51.51985 | 9.66321 | 36400 ft | 452 kts | 268° |
| 2026-05-07 19:31 | 51.51869 | 9.61276 | 36670 ft | 451 kts | 268° |
| 2026-05-07 19:31 | 51.51751 | 9.56236 | 36917 ft | 451 kts | 268° |
| 2026-05-07 19:31 | 51.51631 | 9.51200 | 37102 ft | 453 kts | 267° |
| 2026-05-07 19:31 | 51.51509 | 9.46180 | 36875 ft | 459 kts | 267° |
| 2026-05-07 19:32 | 51.51383 | 9.41048 | 36621 ft | 458 kts | 267° |
| 2026-05-07 19:32 | 51.51255 | 9.35972 | 36367 ft | 453 kts | 267° |
| 2026-05-07 19:32 | 51.51127 | 9.30940 | 36113 ft | 450 kts | 268° |
| 2026-05-07 19:32 | 51.50996 | 9.25910 | 35868 ft | 451 kts | 268° |
| 2026-05-07 19:33 | 51.50864 | 9.20877 | 35622 ft | 451 kts | 268° |
| 2026-05-07 19:33 | 51.50730 | 9.15839 | 35382 ft | 452 kts | 268° |
| 2026-05-07 19:33 | 51.50592 | 9.10801 | 35140 ft | 452 kts | 267° |
| 2026-05-07 19:33 | 51.50430 | 9.05759 | 34907 ft | 452 kts | 267° |
| 2026-05-07 19:34 | 51.50244 | 9.00733 | 34673 ft | 452 kts | 266° |
| 2026-05-07 19:34 | 51.50047 | 8.95693 | 34436 ft | 452 kts | 266° |
| 2026-05-07 19:34 | 51.49848 | 8.90658 | 34217 ft | 452 kts | 266° |
| 2026-05-07 19:34 | 51.49648 | 8.85627 | 34142 ft | 453 kts | 266° |
| 2026-05-07 19:35 | 51.49447 | 8.80559 | 34041 ft | 456 kts | 266° |
| 2026-05-07 19:35 | 51.49249 | 8.75560 | 33677 ft | 451 kts | 266° |
| 2026-05-07 19:35 | 51.49050 | 8.70580 | 33341 ft | 445 kts | 266° |
| 2026-05-07 19:35 | 51.48851 | 8.65625 | 33021 ft | 444 kts | 266° |
| 2026-05-07 19:36 | 51.48651 | 8.60671 | 32705 ft | 445 kts | 266° |
| 2026-05-07 19:36 | 51.48448 | 8.55711 | 32387 ft | 446 kts | 266° |
| 2026-05-07 19:36 | 51.48243 | 8.50748 | 32103 ft | 446 kts | 266° |
| 2026-05-07 19:36 | 51.48036 | 8.45791 | 31844 ft | 445 kts | 266° |
| 2026-05-07 19:37 | 51.47827 | 8.40832 | 31587 ft | 444 kts | 266° |
| 2026-05-07 19:37 | 51.47616 | 8.35891 | 31331 ft | 444 kts | 266° |
| 2026-05-07 19:37 | 51.47404 | 8.30957 | 31076 ft | 444 kts | 266° |
| 2026-05-07 19:37 | 51.47188 | 8.26008 | 30829 ft | 444 kts | 266° |
| 2026-05-07 19:38 | 51.46951 | 8.21061 | 30579 ft | 445 kts | 263° |
| 2026-05-07 19:38 | 51.46331 | 8.16206 | 30324 ft | 446 kts | 252° |
| 2026-05-07 19:38 | 51.45300 | 8.11520 | 30083 ft | 446 kts | 250° |
| 2026-05-07 19:38 | 51.44210 | 8.06852 | 29798 ft | 447 kts | 250° |
| 2026-05-07 19:39 | 51.43110 | 8.02191 | 29505 ft | 448 kts | 250° |
| 2026-05-07 19:39 | 51.42013 | 7.97517 | 29218 ft | 448 kts | 250° |
| 2026-05-07 19:39 | 51.40924 | 7.92834 | 28939 ft | 449 kts | 250° |
| 2026-05-07 19:39 | 51.39842 | 7.88142 | 28666 ft | 449 kts | 250° |
| 2026-05-07 19:40 | 51.38764 | 7.83445 | 28388 ft | 450 kts | 250° |
| 2026-05-07 19:40 | 51.37685 | 7.78739 | 28106 ft | 450 kts | 250° |
| 2026-05-07 19:40 | 51.36606 | 7.74034 | 27854 ft | 450 kts | 250° |
| 2026-05-07 19:40 | 51.35524 | 7.69327 | 27584 ft | 451 kts | 250° |
| 2026-05-07 19:41 | 51.34453 | 7.64678 | 27318 ft | 451 kts | 250° |
| 2026-05-07 19:41 | 51.33409 | 7.59946 | 27058 ft | 452 kts | 252° |
| 2026-05-07 19:41 | 51.32506 | 7.55132 | 26787 ft | 452 kts | 254° |
| 2026-05-07 19:41 | 51.31674 | 7.50270 | 26504 ft | 453 kts | 255° |
| 2026-05-07 19:42 | 51.30863 | 7.45395 | 26221 ft | 454 kts | 255° |
| 2026-05-07 19:42 | 51.30050 | 7.40520 | 25949 ft | 454 kts | 255° |
| 2026-05-07 19:42 | 51.29224 | 7.35653 | 25680 ft | 454 kts | 255° |
| 2026-05-07 19:42 | 51.28386 | 7.30793 | 25387 ft | 452 kts | 255° |
| 2026-05-07 19:43 | 51.27541 | 7.25967 | 25099 ft | 450 kts | 254° |
| 2026-05-07 19:43 | 51.26693 | 7.21165 | 24745 ft | 449 kts | 254° |
| 2026-05-07 19:43 | 51.25842 | 7.16378 | 24410 ft | 446 kts | 254° |
| 2026-05-07 19:43 | 51.24994 | 7.11622 | 24066 ft | 443 kts | 254° |
| 2026-05-07 19:44 | 51.24149 | 7.06903 | 23711 ft | 441 kts | 254° |
| 2026-05-07 19:44 | 51.23318 | 7.02268 | 23305 ft | 438 kts | 254° |
| 2026-05-07 19:44 | 51.22480 | 6.97605 | 22893 ft | 435 kts | 254° |
| 2026-05-07 19:44 | 51.21647 | 6.92982 | 22489 ft | 432 kts | 254° |
| 2026-05-07 19:45 | 51.20816 | 6.88382 | 22096 ft | 430 kts | 254° |
| 2026-05-07 19:45 | 51.19990 | 6.83815 | 21683 ft | 427 kts | 254° |
| 2026-05-07 19:45 | 51.19168 | 6.79285 | 21291 ft | 425 kts | 254° |
| 2026-05-07 19:45 | 51.18346 | 6.74764 | 20902 ft | 422 kts | 254° |
| 2026-05-07 19:46 | 51.17527 | 6.70273 | 20507 ft | 420 kts | 254° |
| 2026-05-07 19:46 | 51.16720 | 6.65858 | 20134 ft | 409 kts | 254° |
| 2026-05-07 19:46 | 51.15935 | 6.61575 | 19753 ft | 396 kts | 253° |
| 2026-05-07 19:46 | 51.15181 | 6.57467 | 19448 ft | 384 kts | 253° |
| 2026-05-07 19:47 | 51.14443 | 6.53461 | 19201 ft | 371 kts | 253° |
| 2026-05-07 19:47 | 51.13725 | 6.49567 | 18953 ft | 360 kts | 253° |
| 2026-05-07 19:47 | 51.13027 | 6.45790 | 18698 ft | 350 kts | 253° |
| 2026-05-07 19:47 | 51.12346 | 6.42112 | 18458 ft | 343 kts | 253° |
| 2026-05-07 19:48 | 51.11676 | 6.38500 | 18205 ft | 338 kts | 253° |
| 2026-05-07 19:48 | 51.11012 | 6.34929 | 17938 ft | 337 kts | 253° |
| 2026-05-07 19:48 | 51.10347 | 6.31359 | 17664 ft | 335 kts | 253° |
| 2026-05-07 19:48 | 51.09685 | 6.27812 | 17403 ft | 335 kts | 253° |
| 2026-05-07 19:49 | 51.09021 | 6.24261 | 17135 ft | 334 kts | 253° |
| 2026-05-07 19:49 | 51.08358 | 6.20722 | 16876 ft | 334 kts | 253° |
| 2026-05-07 19:49 | 51.07695 | 6.17187 | 16618 ft | 334 kts | 253° |
| 2026-05-07 19:49 | 51.07030 | 6.13653 | 16358 ft | 333 kts | 253° |
| 2026-05-07 19:50 | 51.06368 | 6.10141 | 16103 ft | 329 kts | 253° |
| 2026-05-07 19:50 | 51.05719 | 6.06701 | 15835 ft | 322 kts | 253° |
| 2026-05-07 19:50 | 51.05082 | 6.03329 | 15576 ft | 315 kts | 253° |
| 2026-05-07 19:50 | 51.04457 | 6.00033 | 15323 ft | 308 kts | 253° |
| 2026-05-07 19:51 | 51.03844 | 5.96800 | 15070 ft | 303 kts | 253° |
| 2026-05-07 19:51 | 51.03239 | 5.93616 | 14821 ft | 300 kts | 253° |
| 2026-05-07 19:51 | 51.02521 | 5.90523 | 14566 ft | 298 kts | 243° |
| 2026-05-07 19:51 | 51.01366 | 5.87814 | 14334 ft | 296 kts | 229° |
| 2026-05-07 19:52 | 50.99819 | 5.85670 | 14140 ft | 298 kts | 214° |
| 2026-05-07 19:52 | 50.97963 | 5.84148 | 14113 ft | 302 kts | 204° |
| 2026-05-07 19:52 | 50.96053 | 5.82884 | 14082 ft | 300 kts | 203° |
| 2026-05-07 19:52 | 50.94122 | 5.81652 | 14076 ft | 298 kts | 203° |
| 2026-05-07 19:53 | 50.92193 | 5.80432 | 14074 ft | 299 kts | 203° |
| 2026-05-07 19:53 | 50.90259 | 5.79213 | 14077 ft | 299 kts | 202° |
| 2026-05-07 19:53 | 50.88364 | 5.77850 | 14059 ft | 299 kts | 213° |
| 2026-05-07 19:53 | 50.86822 | 5.75680 | 14034 ft | 298 kts | 232° |
| 2026-05-07 19:54 | 50.85804 | 5.72796 | 13591 ft | 304 kts | 251° |
| 2026-05-07 19:54 | 50.85453 | 5.69470 | 13000 ft | 311 kts | 270° |
| 2026-05-07 19:54 | 50.85550 | 5.66068 | 12539 ft | 308 kts | 273° |
| 2026-05-07 19:54 | 50.85705 | 5.62688 | 12101 ft | 307 kts | 274° |
| 2026-05-07 19:55 | 50.85867 | 5.59316 | 11671 ft | 307 kts | 274° |
| 2026-05-07 19:55 | 50.86022 | 5.55956 | 11241 ft | 306 kts | 274° |
| 2026-05-07 19:55 | 50.86169 | 5.52599 | 10821 ft | 305 kts | 273° |
| 2026-05-07 19:55 | 50.86307 | 5.49308 | 10400 ft | 301 kts | 273° |
| 2026-05-07 19:56 | 50.86440 | 5.46027 | 9990 ft | 295 kts | 273° |
| 2026-05-07 19:56 | 50.86567 | 5.42818 | 9585 ft | 290 kts | 273° |
| 2026-05-07 19:56 | 50.86703 | 5.39595 | 9180 ft | 289 kts | 276° |
| 2026-05-07 19:56 | 50.87268 | 5.36554 | 8766 ft | 289 kts | 297° |
| 2026-05-07 19:57 | 50.88369 | 5.33902 | 8390 ft | 288 kts | 306° |
| 2026-05-07 19:57 | 50.89564 | 5.31417 | 8015 ft | 287 kts | 307° |
| 2026-05-07 19:57 | 50.90788 | 5.28916 | 7641 ft | 287 kts | 307° |
| 2026-05-07 19:57 | 50.92010 | 5.26429 | 7264 ft | 286 kts | 307° |
| 2026-05-07 19:58 | 50.93231 | 5.23946 | 6883 ft | 285 kts | 307° |
| 2026-05-07 19:58 | 50.94441 | 5.21485 | 6513 ft | 279 kts | 308° |
| 2026-05-07 19:58 | 50.95625 | 5.19074 | 6151 ft | 276 kts | 308° |
| 2026-05-07 19:58 | 50.96790 | 5.16691 | 6088 ft | 271 kts | 308° |
| 2026-05-07 19:59 | 50.97935 | 5.14346 | 6081 ft | 268 kts | 307° |
| 2026-05-07 19:59 | 50.99074 | 5.11991 | 6079 ft | 270 kts | 304° |
| 2026-05-07 19:59 | 50.99964 | 5.09347 | 6037 ft | 274 kts | 294° |
| 2026-05-07 19:59 | 51.00730 | 5.06546 | 5771 ft | 279 kts | 293° |
| 2026-05-07 20:00 | 51.01480 | 5.03720 | 5556 ft | 276 kts | 292° |
| 2026-05-07 20:00 | 51.02049 | 5.00827 | 5344 ft | 271 kts | 284° |
| 2026-05-07 20:00 | 51.02469 | 4.97991 | 5138 ft | 265 kts | 283° |
| 2026-05-07 20:00 | 51.02871 | 4.95162 | 4927 ft | 260 kts | 283° |
| 2026-05-07 20:01 | 51.02978 | 4.92349 | 4689 ft | 255 kts | 257° |
| 2026-05-07 20:01 | 51.02492 | 4.89678 | 4554 ft | 249 kts | 252° |
| 2026-05-07 20:01 | 51.01919 | 4.87101 | 4382 ft | 245 kts | 248° |
| 2026-05-07 20:01 | 51.01254 | 4.84647 | 4230 ft | 239 kts | 245° |
| 2026-05-07 20:02 | 51.00574 | 4.82305 | 4106 ft | 226 kts | 244° |
| 2026-05-07 20:02 | 50.99931 | 4.80113 | 4023 ft | 211 kts | 244° |
| 2026-05-07 20:02 | 50.99336 | 4.78084 | 3939 ft | 196 kts | 244° |
| 2026-05-07 20:02 | 50.98765 | 4.76129 | 3708 ft | 194 kts | 244° |
| 2026-05-07 20:03 | 50.98200 | 4.74193 | 3462 ft | 193 kts | 244° |
| 2026-05-07 20:03 | 50.97638 | 4.72265 | 3201 ft | 192 kts | 244° |
| 2026-05-07 20:03 | 50.97079 | 4.70348 | 2939 ft | 191 kts | 245° |
| 2026-05-07 20:03 | 50.96522 | 4.68434 | 2681 ft | 190 kts | 245° |
| 2026-05-07 20:04 | 50.95967 | 4.66529 | 2423 ft | 190 kts | 245° |
| 2026-05-07 20:04 | 50.95416 | 4.64634 | 2165 ft | 188 kts | 245° |
| 2026-05-07 20:04 | 50.94875 | 4.62770 | 1918 ft | 183 kts | 245° |
| 2026-05-07 20:04 | 50.94347 | 4.60953 | 1658 ft | 179 kts | 245° |
| 2026-05-07 20:05 | 50.93846 | 4.59225 | 1443 ft | 164 kts | 245° |
| 2026-05-07 20:05 | 50.93390 | 4.57655 | 1213 ft | 149 kts | 245° |
| 2026-05-07 20:05 | 50.92971 | 4.56204 | 958 ft | 142 kts | 245° |
| 2026-05-07 20:05 | 50.92556 | 4.54771 | 785 ft | 145 kts | 245° |
| 2026-05-07 20:06 | 50.92135 | 4.53309 | 621 ft | 146 kts | 245° |
| 2026-05-07 20:06 | 50.91713 | 4.51845 | 413 ft | 144 kts | 244° |
| 2026-05-07 20:06 | 50.91435 | 4.50898 | 276 ft | 143 kts | 245° |
| 2026-05-07 20:06 | 50.91025 | 4.49486 | 118 ft | 139 kts | 245° |
| 2026-05-07 20:07 | 50.90657 | 4.48216 | 117 ft | 110 kts | 245° |
| 2026-05-07 20:07 | 50.90397 | 4.47319 | 117 ft | 55 kts | 245° |
| 2026-05-07 20:07 | 50.90282 | 4.46936 | 122 ft | 23 kts | 232° |
| 2026-05-07 20:07 | 50.90173 | 4.46769 | 124 ft | 10 kts | 218° |
| 2026-05-07 20:08 | 50.90129 | 4.46718 | 126 ft | 6 kts | 216° |
| 2026-05-07 20:08 | 50.90091 | 4.46687 | 123 ft | 7 kts | 186° |
| 2026-05-07 20:08 | 50.90066 | 4.46710 | 121 ft | 4 kts | 128° |
| 2026-05-07 20:08 | 50.90058 | 4.46745 | 124 ft | 2 kts | 101° |
| 2026-05-07 20:09 | 50.90060 | 4.46769 | 124 ft | 2 kts | 76° |
| 2026-05-07 20:09 | 50.90070 | 4.46806 | 124 ft | 6 kts | 67° |
| 2026-05-07 20:09 | 50.90090 | 4.46875 | 125 ft | 8 kts | 65° |
| 2026-05-07 20:10 | 50.90137 | 4.47042 | 121 ft | 8 kts | 65° |
| 2026-05-07 20:10 | 50.90160 | 4.47121 | 126 ft | 8 kts | 65° |
| 2026-05-07 20:10 | 50.90183 | 4.47198 | 124 ft | 8 kts | 64° |
| 2026-05-07 20:10 | 50.90209 | 4.47289 | 119 ft | 10 kts | 65° |
| 2026-05-07 20:11 | 50.90241 | 4.47402 | 118 ft | 12 kts | 64° |
| 2026-05-07 20:11 | 50.90275 | 4.47517 | 120 ft | 12 kts | 65° |
| 2026-05-07 20:11 | 50.90299 | 4.47599 | 118 ft | 13 kts | 65° |
| 2026-05-07 20:11 | 50.90350 | 4.47778 | 120 ft | 13 kts | 65° |
| 2026-05-07 20:12 | 50.90388 | 4.47908 | 119 ft | 13 kts | 65° |
| 2026-05-07 20:12 | 50.90424 | 4.48034 | 118 ft | 12 kts | 66° |
| 2026-05-07 20:12 | 50.90460 | 4.48158 | 120 ft | 12 kts | 65° |
| 2026-05-07 20:12 | 50.90496 | 4.48281 | 118 ft | 13 kts | 65° |
| 2026-05-07 20:13 | 50.90534 | 4.48413 | 118 ft | 12 kts | 65° |
| 2026-05-07 20:13 | 50.90561 | 4.48505 | 116 ft | 7 kts | 65° |
| 2026-05-07 20:13 | 50.90573 | 4.48545 | 115 ft | 0 kts | 65° |
| 2026-05-07 20:15 | 50.90580 | 4.48572 | 115 ft | 7 kts | 66° |
| 2026-05-07 20:15 | 50.90611 | 4.48680 | 112 ft | 14 kts | 65° |
| 2026-05-07 20:15 | 50.90651 | 4.48819 | 112 ft | 14 kts | 66° |
| 2026-05-07 20:15 | 50.90686 | 4.48941 | 112 ft | 8 kts | 64° |
| 2026-05-07 20:16 | 50.90690 | 4.48954 | 111 ft | 0 kts | 64° |
| 2026-05-07 20:17 | 50.90690 | 4.48955 | 111 ft | 0 kts | 64° |
| 2026-05-07 20:17 | 50.90691 | 4.48957 | 111 ft | 1 kts | 65° |
| 2026-05-07 20:18 | 50.90702 | 4.48995 | 110 ft | 7 kts | 65° |
| 2026-05-07 20:18 | 50.90706 | 4.49082 | 112 ft | 9 kts | 122° |
| 2026-05-07 20:18 | 50.90649 | 4.49079 | 112 ft | 10 kts | 237° |
| 2026-05-07 20:18 | 50.90614 | 4.48961 | 113 ft | 14 kts | 244° |
| 2026-05-07 20:19 | 50.90564 | 4.48792 | 113 ft | 20 kts | 245° |
| 2026-05-07 20:19 | 50.90503 | 4.48580 | 116 ft | 21 kts | 245° |
| 2026-05-07 20:19 | 50.90442 | 4.48371 | 120 ft | 21 kts | 245° |
| 2026-05-07 20:19 | 50.90385 | 4.48166 | 121 ft | 20 kts | 246° |
| 2026-05-07 20:20 | 50.90327 | 4.47970 | 122 ft | 19 kts | 245° |
| 2026-05-07 20:20 | 50.90270 | 4.47779 | 120 ft | 19 kts | 245° |
| 2026-05-07 20:20 | 50.90215 | 4.47589 | 121 ft | 19 kts | 245° |
| 2026-05-07 20:20 | 50.90163 | 4.47405 | 122 ft | 18 kts | 246° |
| 2026-05-07 20:21 | 50.90136 | 4.47233 | 123 ft | 16 kts | 285° |
| 2026-05-07 20:21 | 50.90176 | 4.47104 | 124 ft | 4 kts | 294° |
| 2026-05-07 20:21 | 50.90176 | 4.47102 | 124 ft | 0 kts | 294° |
| 2026-05-07 20:24 | 50.90186 | 4.47067 | 121 ft | 10 kts | 295° |
| 2026-05-07 20:24 | 50.90232 | 4.46922 | 122 ft | 19 kts | 295° |
| 2026-05-07 20:25 | 50.90302 | 4.46694 | 121 ft | 26 kts | 297° |
| 2026-05-07 20:25 | 50.90362 | 4.46463 | 129 ft | 21 kts | 275° |
| 2026-05-07 20:25 | 50.90322 | 4.46260 | 124 ft | 19 kts | 246° |
| 2026-05-07 20:25 | 50.90282 | 4.46079 | 128 ft | 15 kts | 250° |
| 2026-05-07 20:26 | 50.90243 | 4.45941 | 127 ft | 13 kts | 245° |
| 2026-05-07 20:26 | 50.90220 | 4.45827 | 128 ft | 8 kts | 291° |
| 2026-05-07 20:26 | 50.90264 | 4.45787 | 126 ft | 7 kts | 336° |
| 2026-05-07 20:26 | 50.90296 | 4.45765 | 127 ft | 0 kts | 336° |